Time;durP1;ratioP1;P1;durP2;ratioP2;P2;SDS_P1;SDS_P2;PMS_P1;PMS_P2;Temp;Humidity;BMP_temperature;BMP_pressure;BME280_temperature;BME280_humidity;BME280_pressure;Samples;Min_cycle;Max_cycle;Signal;HPM_P1;HPM_P2
2024/01/18 15:55:15;;;;;;;78.63;36.00;;;1.60;99.90;;;;;;5110747;27;20522;-45
2024/01/18 15:57:41;;;;;;;84.55;37.80;;;1.50;99.90;;;;;;5110704;27;20926;-49
2024/01/18 16:00:08;;;;;;;82.05;37.35;;;1.50;99.90;;;;;;5109040;28;20036;-47
2024/01/18 16:02:34;;;;;;;86.22;41.05;;;1.50;99.90;;;;;;5109870;28;20027;-46
2024/01/18 16:05:00;;;;;;;92.63;41.10;;;1.60;99.90;;;;;;5110381;28;20123;-47
2024/01/18 16:07:26;;;;;;;78.80;39.30;;;1.60;99.90;;;;;;5118957;28;20047;-45
2024/01/18 16:09:52;;;;;;;79.95;37.13;;;1.60;99.90;;;;;;5117611;28;21869;-51
2024/01/18 16:12:18;;;;;;;72.78;36.67;;;1.50;99.90;;;;;;5117987;28;20047;-49
2024/01/18 16:14:46;;;;;;;72.15;35.65;;;1.50;99.90;;;;;;5111313;28;20487;-49
2024/01/18 16:17:12;;;;;;;73.03;34.33;;;1.50;99.90;;;;;;5111232;28;20028;-49
2024/01/18 16:19:38;;;;;;;70.03;34.05;;;1.50;99.90;;;;;;5108954;28;20512;-47
2024/01/18 16:22:04;;;;;;;72.70;34.78;;;1.40;99.90;;;;;;5111182;28;20127;-50
2024/01/18 16:24:31;;;;;;;75.65;37.85;;;1.40;99.90;;;;;;5111202;28;20035;-47
2024/01/18 16:26:57;;;;;;;77.85;37.65;;;1.40;99.90;;;;;;5110295;28;20035;-49
2024/01/18 16:29:24;;;;;;;67.88;34.25;;;1.50;99.90;;;;;;5108612;28;20027;-49
2024/01/18 16:31:51;;;;;;;71.57;34.90;;;1.40;99.90;;;;;;5110493;28;20020;-49
2024/01/18 16:34:16;;;;;;;69.47;33.90;;;1.40;99.90;;;;;;5110235;28;20043;-52
2024/01/18 16:36:42;;;;;;;68.50;34.83;;;1.40;99.90;;;;;;5114582;28;20020;-48
2024/01/18 16:39:09;;;;;;;69.63;35.63;;;1.30;99.90;;;;;;5125522;28;20020;-47
2024/01/18 16:41:34;;;;;;;71.88;37.53;;;1.30;99.90;;;;;;5124433;28;20038;-46
2024/01/18 16:44:01;;;;;;;69.22;32.95;;;1.30;99.90;;;;;;5130293;27;20027;-50
2024/01/18 16:46:26;;;;;;;69.15;34.30;;;1.30;99.90;;;;;;5143357;27;20417;-45
2024/01/18 16:48:52;;;;;;;67.93;34.38;;;1.30;99.90;;;;;;5143451;27;20042;-48
2024/01/18 16:51:18;;;;;;;68.43;33.47;;;1.30;99.90;;;;;;5143706;27;20030;-46
2024/01/18 16:53:44;;;;;;;62.95;32.22;;;1.30;99.90;;;;;;5143202;27;20470;-50
2024/01/18 16:56:13;;;;;;;70.37;34.73;;;1.40;99.90;;;;;;5145776;27;20031;-47
2024/01/18 16:58:39;;;;;;;67.18;34.10;;;1.20;99.90;;;;;;5146095;27;20015;-51
2024/01/18 17:01:06;;;;;;;67.03;34.45;;;1.30;99.90;;;;;;5145807;27;20023;-52
2024/01/18 17:03:32;;;;;;;75.15;36.38;;;1.30;99.90;;;;;;5143384;27;20107;-46
2024/01/18 17:05:57;;;;;;;72.93;37.83;;;1.20;99.90;;;;;;5133702;27;20064;-46
2024/01/18 17:08:23;;;;;;;74.40;36.58;;;1.20;99.90;;;;;;5102679;27;20024;-49
2024/01/18 17:10:49;;;;;;;78.93;37.92;;;1.20;99.90;;;;;;5089475;28;20024;-46
2024/01/18 17:13:15;;;;;;;78.55;37.63;;;1.20;99.90;;;;;;5089770;28;20036;-47
2024/01/18 17:15:41;;;;;;;72.57;36.78;;;1.20;99.90;;;;;;5090325;28;20035;-49
2024/01/18 17:18:07;;;;;;;72.10;35.83;;;1.10;99.90;;;;;;5090670;28;20722;-50
2024/01/18 17:20:33;;;;;;;76.60;38.45;;;1.20;99.90;;;;;;5090568;28;20017;-54
2024/01/18 17:22:59;;;;;;;82.07;39.53;;;1.20;99.90;;;;;;5088175;28;20031;-48
2024/01/18 17:25:25;;;;;;;81.63;38.58;;;1.20;99.90;;;;;;5090129;28;20085;-48
2024/01/18 17:27:50;;;;;;;79.85;37.05;;;1.20;99.90;;;;;;5090430;28;20078;-48
2024/01/18 17:30:16;;;;;;;79.35;37.33;;;1.20;99.90;;;;;;5090597;28;20031;-49
2024/01/18 17:32:42;;;;;;;84.57;38.80;;;1.20;99.90;;;;;;5090544;28;20024;-50
2024/01/18 17:35:09;;;;;;;75.20;36.28;;;1.10;99.90;;;;;;5106571;28;20113;-49
2024/01/18 17:37:35;;;;;;;72.18;33.67;;;1.10;99.90;;;;;;5110586;28;20032;-52
2024/01/18 17:40:00;;;;;;;83.35;38.38;;;1.10;99.90;;;;;;5109480;28;20487;-51
2024/01/18 17:42:26;;;;;;;88.88;38.72;;;1.00;99.90;;;;;;5111028;28;20023;-47
2024/01/18 17:44:52;;;;;;;93.80;44.85;;;0.90;99.90;;;;;;5110704;28;20023;-51
2024/01/18 17:47:18;;;;;;;103.25;48.65;;;1.00;99.90;;;;;;5110449;28;20032;-49
2024/01/18 17:49:44;;;;;;;109.55;48.80;;;0.80;99.90;;;;;;5110203;28;20533;-48
2024/01/18 17:52:10;;;;;;;110.97;47.47;;;0.80;99.90;;;;;;5110694;27;20390;-49
2024/01/18 17:54:37;;;;;;;97.43;45.08;;;0.70;99.90;;;;;;5110637;27;20051;-49
2024/01/18 17:57:03;;;;;;;102.90;46.05;;;0.70;99.90;;;;;;5111226;27;20050;-50
2024/01/18 17:59:29;;;;;;;106.13;48.47;;;0.70;99.90;;;;;;5109127;28;20137;-50
2024/01/18 18:01:55;;;;;;;100.53;46.60;;;0.70;99.90;;;;;;5109218;28;20560;-51
2024/01/18 18:04:20;;;;;;;98.88;47.00;;;0.70;99.90;;;;;;5109885;28;20543;-51
2024/01/18 18:06:52;;;;;;;102.25;46.25;;;0.60;99.90;;;;;;5110152;28;20471;-48
2024/01/18 18:09:18;;;;;;;105.90;45.78;;;0.60;99.90;;;;;;5110202;28;20035;-48
2024/01/18 18:11:44;;;;;;;97.22;45.97;;;0.60;99.90;;;;;;5109716;28;20039;-50
2024/01/18 18:14:09;;;;;;;107.88;46.50;;;0.50;99.90;;;;;;5109959;28;20027;-47
2024/01/18 18:16:35;;;;;;;99.32;42.58;;;0.50;99.90;;;;;;5109498;28;20024;-50
2024/01/18 18:19:01;;;;;;;91.78;42.22;;;0.40;99.90;;;;;;5110208;28;20032;-49
2024/01/18 18:21:26;;;;;;;81.97;38.63;;;0.50;99.90;;;;;;5109789;28;20106;-47
2024/01/18 18:23:52;;;;;;;75.72;36.25;;;0.30;99.90;;;;;;5110051;28;20104;-52
2024/01/18 18:26:21;;;;;;;86.72;36.95;;;0.40;99.90;;;;;;5110417;28;20031;-46
2024/01/18 18:28:50;;;;;;;81.05;36.70;;;0.30;99.90;;;;;;5109870;28;20429;-48
2024/01/18 18:31:17;;;;;;;74.00;35.33;;;0.30;99.90;;;;;;5110189;27;20414;-48
2024/01/18 18:33:44;;;;;;;75.80;36.27;;;0.40;99.90;;;;;;5109842;28;20554;-49
2024/01/18 18:36:10;;;;;;;68.03;30.98;;;0.30;99.90;;;;;;5109807;28;20031;-46
2024/01/18 18:38:35;;;;;;;69.53;31.23;;;0.30;99.90;;;;;;5110524;28;20119;-52
2024/01/18 18:41:02;;;;;;;74.22;34.38;;;0.30;99.90;;;;;;5109884;28;20122;-51
2024/01/18 18:43:28;;;;;;;;;;;0.30;99.90;;;;;;5110073;28;20042;-48
2024/01/18 18:45:53;;;;;;;74.45;33.55;;;0.30;99.90;;;;;;5110611;28;19979;-49
2024/01/18 18:48:19;;;;;;;78.78;33.78;;;0.20;99.90;;;;;;5110910;28;20080;-50
2024/01/18 18:50:45;;;;;;;77.60;34.85;;;0.30;99.90;;;;;;5112206;28;20099;-46
2024/01/18 18:53:10;;;;;;;69.88;32.45;;;0.20;99.90;;;;;;5111494;28;20107;-50
2024/01/18 18:55:36;;;;;;;75.68;32.40;;;0.30;99.90;;;;;;5111389;28;20111;-48
2024/01/18 18:58:02;;;;;;;71.00;32.22;;;0.20;99.90;;;;;;5109164;28;20092;-48
2024/01/18 19:00:29;;;;;;;68.55;32.60;;;0.20;99.90;;;;;;5109094;28;20084;-50
2024/01/18 19:02:55;;;;;;;68.68;29.85;;;0.20;99.90;;;;;;5109092;27;20040;-50
2024/01/18 19:05:21;;;;;;;72.80;33.00;;;0.20;99.90;;;;;;5109112;28;20081;-48
2024/01/18 19:07:47;;;;;;;63.30;29.15;;;0.20;99.90;;;;;;5109403;28;20066;-51
2024/01/18 19:10:13;;;;;;;63.65;29.42;;;0.20;99.90;;;;;;5109061;28;20023;-49
2024/01/18 19:12:40;;;;;;;64.00;26.70;;;0.10;99.90;;;;;;5109182;28;20076;-49
2024/01/18 19:15:06;;;;;;;60.20;26.80;;;0.10;99.90;;;;;;5109343;28;20023;-51
2024/01/18 19:17:32;;;;;;;69.72;30.13;;;0.10;99.90;;;;;;5108561;28;20047;-47
2024/01/18 19:19:58;;;;;;;72.93;30.67;;;0.10;99.90;;;;;;5108714;28;20047;-51
2024/01/18 19:22:24;;;;;;;83.28;34.53;;;0.20;99.90;;;;;;5108860;28;20081;-46
2024/01/18 19:24:50;;;;;;;114.65;50.25;;;0.20;99.90;;;;;;5109129;28;20027;-50
2024/01/18 19:27:15;;;;;;;103.45;43.45;;;0.20;99.90;;;;;;5108648;27;20023;-46
2024/01/18 19:29:41;;;;;;;96.78;40.50;;;0.10;99.90;;;;;;5108020;28;20033;-49
2024/01/18 19:32:07;;;;;;;83.45;38.60;;;0.10;99.90;;;;;;5108430;28;20023;-48
2024/01/18 19:34:33;;;;;;;81.60;37.17;;;0.10;99.90;;;;;;5108546;28;20394;-50
2024/01/18 19:36:59;;;;;;;78.83;36.77;;;0.10;99.90;;;;;;5100644;28;20043;-47
2024/01/18 19:39:25;;;;;;;83.35;39.97;;;0.10;99.90;;;;;;5096455;28;20278;-50
2024/01/18 19:41:50;;;;;;;88.28;38.63;;;0.10;99.90;;;;;;5107868;28;20020;-48
2024/01/18 19:44:16;;;;;;;80.90;37.78;;;0.00;99.90;;;;;;5104019;28;20032;-45
2024/01/18 19:46:42;;;;;;;73.82;34.67;;;0.00;99.90;;;;;;5089364;28;20021;-51
2024/01/18 19:49:08;;;;;;;76.18;36.20;;;-0.10;99.90;;;;;;5089111;28;20028;-47
2024/01/18 19:51:33;;;;;;;68.70;34.40;;;-0.20;99.90;;;;;;5088065;28;20016;-50
2024/01/18 19:54:02;;;;;;;85.32;37.15;;;-0.20;99.90;;;;;;5088219;28;20482;-48
2024/01/18 19:56:28;;;;;;;83.68;38.75;;;-0.20;99.90;;;;;;5087836;28;20089;-46
2024/01/18 19:58:54;;;;;;;85.97;40.10;;;-0.20;99.90;;;;;;5088159;28;20020;-49
2024/01/18 20:01:19;;;;;;;95.60;40.58;;;-0.20;99.90;;;;;;5088010;28;20074;-52
2024/01/18 20:03:45;;;;;;;95.90;44.85;;;-0.10;99.90;;;;;;5087715;28;20016;-49
2024/01/18 20:06:11;;;;;;;102.43;45.78;;;-0.10;99.90;;;;;;5087869;28;20036;-49
2024/01/18 20:08:36;;;;;;;102.80;44.22;;;-0.10;99.90;;;;;;5087730;28;20021;-52
2024/01/18 20:11:02;;;;;;;107.32;47.92;;;-0.10;99.90;;;;;;5087827;28;20081;-46
2024/01/18 20:13:27;;;;;;;98.60;47.63;;;-0.10;99.90;;;;;;5087415;28;20040;-52
2024/01/18 20:15:53;;;;;;;96.30;45.22;;;-0.10;99.90;;;;;;5095952;28;20020;-47
2024/01/18 20:18:19;;;;;;;104.57;48.65;;;-0.20;99.90;;;;;;5088823;28;20779;-52
2024/01/18 20:20:47;;;;;;;95.13;44.58;;;-0.20;99.90;;;;;;5087395;28;20468;-48
2024/01/18 20:23:13;;;;;;;87.53;40.72;;;-0.20;99.90;;;;;;5102034;28;20094;-49
2024/01/18 20:25:38;;;;;;;94.38;42.55;;;-0.20;99.90;;;;;;5107085;28;20028;-47
2024/01/18 20:28:04;;;;;;;83.00;40.08;;;-0.20;99.90;;;;;;5099406;28;20458;-47
2024/01/18 20:30:30;;;;;;;82.95;41.00;;;-0.20;99.90;;;;;;5096309;28;20027;-47
2024/01/18 20:32:56;;;;;;;92.75;43.08;;;-0.30;99.90;;;;;;5097925;28;20461;-45
2024/01/18 20:35:21;;;;;;;99.13;43.92;;;-0.20;99.90;;;;;;5096122;28;20027;-48
2024/01/18 20:37:47;;;;;;;87.68;42.63;;;-0.20;99.90;;;;;;5096988;28;20016;-47
2024/01/18 20:40:13;;;;;;;84.78;40.90;;;-0.30;99.90;;;;;;5098621;28;20124;-48
2024/01/18 20:42:38;;;;;;;90.85;42.22;;;-0.30;99.90;;;;;;5099669;28;20104;-48
2024/01/18 20:45:05;;;;;;;84.45;41.38;;;-0.30;99.90;;;;;;5101965;28;20041;-48
2024/01/18 20:47:30;;;;;;;96.77;43.77;;;-0.20;99.90;;;;;;5102142;28;20024;-51
2024/01/18 20:49:56;;;;;;;91.85;42.83;;;-0.20;99.90;;;;;;5103661;28;20016;-49
2024/01/18 20:52:22;;;;;;;97.10;46.97;;;-0.10;99.90;;;;;;5099631;28;20622;-50
2024/01/18 20:54:47;;;;;;;88.95;43.38;;;-0.10;99.90;;;;;;5090702;28;20138;-53
2024/01/18 20:57:13;;;;;;;93.13;44.85;;;-0.10;99.90;;;;;;5090776;28;20024;-50
2024/01/18 20:59:39;;;;;;;90.65;45.38;;;-0.10;99.90;;;;;;5090432;28;20031;-49
2024/01/18 21:02:04;;;;;;;92.20;44.03;;;-0.20;99.90;;;;;;5090741;28;20031;-47
2024/01/18 21:04:30;;;;;;;90.68;43.03;;;-0.20;99.90;;;;;;5090794;28;20087;-48
2024/01/18 21:06:56;;;;;;;97.03;44.53;;;-0.30;99.90;;;;;;5090970;28;20034;-49
2024/01/18 21:09:23;;;;;;;89.07;43.50;;;-0.20;99.90;;;;;;5090962;28;20381;-49
2024/01/18 21:11:50;;;;;;;91.40;43.72;;;-0.20;99.90;;;;;;5089276;28;20040;-49
2024/01/18 21:14:15;;;;;;;88.45;45.22;;;-0.20;99.90;;;;;;5090330;28;20044;-48
2024/01/18 21:16:41;;;;;;;92.47;44.22;;;-0.20;99.90;;;;;;5093645;28;20189;-48
2024/01/18 21:19:07;;;;;;;90.40;42.53;;;-0.20;99.90;;;;;;5110299;28;20168;-52
2024/01/18 21:21:34;;;;;;;87.22;44.78;;;-0.20;99.90;;;;;;5110821;28;20042;-48
2024/01/18 21:24:00;;;;;;;91.00;46.30;;;-0.10;99.90;;;;;;5102115;28;20051;-50
2024/01/18 21:26:26;;;;;;;88.35;43.85;;;-0.10;99.90;;;;;;5088873;28;20467;-51
2024/01/18 21:28:52;;;;;;;100.95;46.30;;;-0.20;99.90;;;;;;5090444;28;20016;-47
2024/01/18 21:31:18;;;;;;;95.57;44.28;;;-0.20;99.90;;;;;;5090405;28;20032;-49
2024/01/18 21:33:43;;;;;;;92.22;43.75;;;-0.20;99.90;;;;;;5090131;28;20123;-51
2024/01/18 21:36:09;;;;;;;91.15;46.00;;;-0.10;99.90;;;;;;5088085;28;20375;-46
2024/01/18 21:38:35;;;;;;;90.20;44.83;;;-0.20;99.90;;;;;;5090265;28;20016;-50
2024/01/18 21:41:01;;;;;;;92.47;42.28;;;-0.20;99.90;;;;;;5089538;28;20067;-48
2024/01/18 21:43:26;;;;;;;98.03;45.97;;;-0.20;99.90;;;;;;5089535;28;20008;-47
2024/01/18 21:45:53;;;;;;;88.18;42.38;;;-0.20;99.90;;;;;;5095306;28;20655;-48
2024/01/18 21:48:19;;;;;;;;;;;-0.30;99.90;;;;;;5097069;28;20036;-51
2024/01/18 21:50:45;;;;;;;76.50;40.85;;;-0.20;99.90;;;;;;5094521;28;19927;-52
2024/01/18 21:53:10;;;;;;;84.63;41.55;;;-0.30;99.90;;;;;;5089869;28;20383;-47
2024/01/18 21:55:38;;;;;;;85.25;39.80;;;-0.30;99.90;;;;;;5086816;28;20372;-51
2024/01/18 21:58:04;;;;;;;70.18;36.78;;;-0.20;99.90;;;;;;5089309;28;20032;-48
2024/01/18 22:00:30;;;;;;;77.38;38.58;;;-0.20;99.90;;;;;;5088100;28;20063;-52
2024/01/18 22:02:56;;;;;;;80.80;40.67;;;-0.30;99.90;;;;;;5089259;28;20047;-53
2024/01/18 22:05:23;;;;;;;81.28;38.70;;;-0.30;99.90;;;;;;5087553;28;20016;-48
2024/01/18 22:07:49;;;;;;;84.85;40.20;;;-0.30;99.90;;;;;;5089060;28;20063;-46
2024/01/18 22:10:14;;;;;;;82.60;40.10;;;-0.30;99.90;;;;;;5087830;28;20494;-47
2024/01/18 22:12:40;;;;;;;83.57;40.38;;;-0.30;99.90;;;;;;5089450;28;20503;-49
2024/01/18 22:15:06;;;;;;;88.15;40.25;;;-0.30;99.90;;;;;;5089617;28;20067;-52
2024/01/18 22:17:33;;;;;;;89.75;39.55;;;-0.30;99.90;;;;;;5095475;28;20039;-48
2024/01/18 22:19:58;;;;;;;86.95;41.60;;;-0.30;99.90;;;;;;5099134;28;20386;-49
2024/01/18 22:22:24;;;;;;;85.07;39.80;;;-0.30;99.90;;;;;;5100182;28;20031;-49
2024/01/18 22:24:50;;;;;;;79.68;39.42;;;-0.30;99.90;;;;;;5098531;28;20020;-47
2024/01/18 22:27:15;;;;;;;79.28;35.92;;;-0.40;99.90;;;;;;5099554;28;20362;-52
2024/01/18 22:29:41;;;;;;;80.30;38.47;;;-0.30;99.90;;;;;;5099116;28;20623;-52
2024/01/18 22:32:07;;;;;;;79.22;37.00;;;-0.30;99.90;;;;;;5097886;28;20035;-49
2024/01/18 22:34:33;;;;;;;79.40;37.78;;;-0.30;99.90;;;;;;5099508;28;20035;-47
2024/01/18 22:36:58;;;;;;;78.18;37.92;;;-0.30;99.90;;;;;;5098701;28;20028;-51
2024/01/18 22:39:25;;;;;;;78.20;37.30;;;-0.30;99.90;;;;;;5097627;28;20137;-47
2024/01/18 22:41:51;;;;;;;82.72;38.42;;;-0.30;99.90;;;;;;5099829;28;20024;-50
2024/01/18 22:44:16;;;;;;;87.35;41.78;;;-0.30;99.90;;;;;;5098411;28;20560;-51
2024/01/18 22:46:43;;;;;;;79.63;37.80;;;-0.30;99.90;;;;;;5095438;28;20024;-47
2024/01/18 22:49:09;;;;;;;81.03;37.55;;;-0.20;99.90;;;;;;5089620;28;20074;-52
2024/01/18 22:51:35;;;;;;;84.78;37.97;;;-0.20;99.90;;;;;;5098572;28;20019;-52
2024/01/18 22:54:00;;;;;;;81.15;38.03;;;-0.30;99.90;;;;;;5099282;28;20047;-47
2024/01/18 22:56:26;;;;;;;76.72;38.20;;;-0.20;99.90;;;;;;5097369;28;20479;-51
2024/01/18 22:58:52;;;;;;;85.13;37.33;;;-0.20;99.90;;;;;;5099293;28;20012;-46
2024/01/18 23:01:18;;;;;;;74.95;36.75;;;-0.20;99.90;;;;;;5098896;28;20020;-50
2024/01/18 23:03:47;;;;;;;87.63;38.42;;;-0.20;99.90;;;;;;5096300;28;20024;-49
2024/01/18 23:06:13;;;;;;;78.82;37.35;;;-0.20;99.90;;;;;;5098820;28;20124;-47
2024/01/18 23:08:38;;;;;;;71.10;35.10;;;-0.20;99.90;;;;;;5098520;28;20031;-47
2024/01/18 23:11:04;;;;;;;79.97;38.10;;;-0.20;99.90;;;;;;5097174;28;20035;-51
2024/01/18 23:13:30;;;;;;;73.78;37.30;;;-0.20;99.90;;;;;;5098350;28;20024;-49
2024/01/18 23:15:58;;;;;;;76.10;34.40;;;-0.20;99.90;;;;;;5098533;28;20089;-51
2024/01/18 23:18:23;;;;;;;75.07;36.90;;;-0.20;99.90;;;;;;5097301;28;20123;-49
2024/01/18 23:20:49;;;;;;;78.18;37.03;;;-0.20;99.90;;;;;;5099259;28;20094;-52
2024/01/18 23:23:17;;;;;;;68.00;33.78;;;-0.20;99.90;;;;;;5097936;28;20024;-47
2024/01/18 23:25:43;;;;;;;76.97;36.10;;;-0.20;99.90;;;;;;5088948;28;20039;-49
2024/01/18 23:28:09;;;;;;;76.60;35.55;;;-0.10;99.90;;;;;;5088650;28;20047;-49
2024/01/18 23:30:36;;;;;;;67.43;35.33;;;-0.10;99.90;;;;;;5088600;28;20395;-50
